createdAt,value
2024-02-17T00:00:21.397Z,99996.56
2024-02-17T00:00:53.423Z,99995.72
2024-02-17T00:01:25.483Z,99996.56
2024-02-17T00:01:57.452Z,99993.06
2024-02-17T00:02:29.682Z,99996.63
2024-02-17T00:03:02.536Z,99993.22
2024-02-17T00:03:34.625Z,99992.38
2024-02-17T00:04:06.783Z,99997.66
2024-02-17T00:04:38.794Z,99993.22
2024-02-17T00:05:10.888Z,99993.16
2024-02-17T00:05:43.082Z,99997.63
2024-02-17T00:06:15.121Z,99999.38
2024-02-17T00:06:47.083Z,99996.66
2024-02-17T00:07:19.060Z,99993.84
2024-02-17T00:07:51.159Z,99999.81
2024-02-17T00:08:51.867Z,99982.91
2024-02-17T00:09:23.826Z,99997.59
2024-02-17T00:09:55.734Z,99994.00
2024-02-17T00:10:27.678Z,99992.25
2024-02-17T00:10:59.690Z,99987.97
2024-02-17T00:11:31.649Z,99994.78
2024-02-17T00:12:03.761Z,99994.59
2024-02-17T00:12:36.156Z,100004.22
2024-02-17T00:13:08.121Z,99995.34
2024-02-17T00:13:40.069Z,99995.28
2024-02-17T00:14:12.042Z,100001.31
2024-02-17T00:14:43.985Z,99995.94
2024-02-17T00:15:16.144Z,99985.28
2024-02-17T00:15:48.371Z,99994.06
2024-02-17T00:16:20.801Z,99996.75
2024-02-17T00:16:53.066Z,99992.47
2024-02-17T00:17:24.970Z,99999.66
2024-02-17T00:17:57.051Z,99985.56
2024-02-17T00:18:30.376Z,99997.03
2024-02-17T00:19:02.584Z,99990.91
2024-02-17T00:19:34.782Z,99992.59
2024-02-17T00:20:08.679Z,99994.34
2024-02-17T00:20:41.007Z,99989.03
2024-02-17T00:21:12.976Z,99988.16
2024-02-17T00:21:45.034Z,99988.28
2024-02-17T00:22:17.906Z,99991.69
2024-02-17T00:22:51.211Z,99991.72
2024-02-17T00:23:23.249Z,99980.13
2024-02-17T00:23:55.245Z,99983.53
2024-02-17T00:24:27.330Z,99978.22
2024-02-17T00:24:59.280Z,99992.44
2024-02-17T00:25:31.186Z,99976.59
2024-02-17T00:26:03.133Z,99977.44
2024-02-17T00:26:35.112Z,99983.66
2024-02-17T00:27:07.141Z,99982.75
2024-02-17T00:27:39.089Z,99990.72
2024-02-17T00:28:10.951Z,99980.91
2024-02-17T00:28:43.129Z,99987.03
2024-02-17T00:29:16.659Z,99991.41
2024-02-17T00:29:48.679Z,99986.91
2024-02-17T00:30:22.153Z,99987.91
2024-02-17T00:30:55.038Z,99981.84
2024-02-17T00:31:26.961Z,99989.81
2024-02-17T00:31:58.854Z,99997.75
2024-02-17T00:32:30.741Z,99990.72
2024-02-17T00:33:04.951Z,99986.28
2024-02-17T00:33:40.224Z,99993.13
2024-02-17T00:34:12.946Z,99990.44
2024-02-17T00:34:45.084Z,99983.28
2024-02-17T00:35:17.284Z,99988.56
2024-02-17T00:35:49.226Z,99986.75
2024-02-17T00:36:21.197Z,99991.19
2024-02-17T00:36:53.181Z,99988.50
2024-02-17T00:37:25.076Z,99984.13
2024-02-17T00:37:56.956Z,99991.19
2024-02-17T00:38:28.816Z,99986.69
2024-02-17T00:39:00.699Z,99982.34
2024-02-17T00:39:32.713Z,99986.50
2024-02-17T00:40:07.181Z,99981.13
2024-02-17T00:40:40.737Z,99981.94
2024-02-17T00:41:12.678Z,99983.56
2024-02-17T00:41:45.555Z,99978.22
2024-02-17T00:42:17.437Z,99980.19
2024-02-17T00:42:49.525Z,99983.69
2024-02-17T00:43:23.298Z,99976.59
2024-02-17T00:43:55.279Z,99979.22
2024-02-17T00:44:27.257Z,99982.00
2024-02-17T00:44:59.366Z,99981.03
2024-02-17T00:45:31.448Z,99980.22
2024-02-17T00:46:03.847Z,99975.03
2024-02-17T00:46:35.849Z,99969.72
2024-02-17T00:47:07.943Z,99975.78
2024-02-17T00:47:39.876Z,99981.03
2024-02-17T00:48:11.901Z,99977.53
2024-02-17T00:48:44.006Z,99979.41
2024-02-17T00:49:16.187Z,99978.66
2024-02-17T00:49:48.477Z,99979.75
2024-02-17T00:50:20.674Z,99980.84
2024-02-17T00:51:01.906Z,99980.06
2024-02-17T00:51:40.629Z,99974.00
2024-02-17T00:52:12.709Z,99974.22
2024-02-17T00:52:44.793Z,99974.56
2024-02-17T00:53:16.668Z,99978.03
2024-02-17T00:53:48.670Z,99983.41
2024-02-17T00:54:20.683Z,99982.53
2024-02-17T00:54:52.680Z,99975.66
2024-02-17T00:55:24.783Z,99976.63
2024-02-17T00:55:57.500Z,99977.47
2024-02-17T00:56:29.380Z,99981.91
2024-02-17T00:57:01.336Z,99965.34
2024-02-17T00:57:33.339Z,99977.97
2024-02-17T00:58:05.415Z,99979.78
2024-02-17T00:58:37.402Z,99969.28
2024-02-17T00:59:09.358Z,99978.06
2024-02-17T00:59:41.248Z,99976.47
2024-02-17T01:00:14.305Z,99971.25
2024-02-17T01:00:46.236Z,99976.75
2024-02-17T01:01:26.012Z,99979.34
2024-02-17T01:02:02.602Z,99972.84
2024-02-17T01:02:34.518Z,99983.00
2024-02-17T01:03:06.412Z,99982.81
2024-02-17T01:03:38.448Z,99979.50
2024-02-17T01:04:10.680Z,99967.22
2024-02-17T01:04:42.642Z,99977.75
2024-02-17T01:05:14.668Z,99974.41
2024-02-17T01:05:46.661Z,99976.22
2024-02-17T01:06:18.756Z,99975.25
2024-02-17T01:06:50.868Z,99975.22
2024-02-17T01:07:22.963Z,99975.22
2024-02-17T01:07:54.986Z,99976.97
2024-02-17T01:08:37.858Z,99978.84
2024-02-17T01:09:16.553Z,99975.59
2024-02-17T01:09:48.551Z,99977.41
2024-02-17T01:10:20.944Z,99979.28
2024-02-17T01:10:53.098Z,99983.69
2024-02-17T01:11:25.089Z,99974.91
2024-02-17T01:11:57.053Z,99978.47
2024-02-17T01:12:28.947Z,99977.66
2024-02-17T01:13:00.849Z,99975.13
2024-02-17T01:13:32.776Z,99973.38
2024-02-17T01:14:04.733Z,99977.00
2024-02-17T01:14:36.660Z,99979.75
2024-02-17T01:15:09.455Z,99978.88
2024-02-17T01:15:41.377Z,99979.66
2024-02-17T01:16:13.329Z,99975.25
2024-02-17T01:16:45.224Z,99974.25
2024-02-17T01:17:17.160Z,99977.72
2024-02-17T01:17:49.344Z,99965.63
2024-02-17T01:18:21.480Z,99976.97
2024-02-17T01:18:56.087Z,99979.66
2024-02-17T01:19:28.338Z,99974.38
2024-02-17T01:20:00.531Z,99963.03
2024-02-17T01:20:32.531Z,99968.31
2024-02-17T01:21:04.456Z,99978.75
2024-02-17T01:21:36.893Z,99973.59
2024-02-17T01:22:10.062Z,99968.19
2024-02-17T01:22:42.396Z,99975.25
2024-02-17T01:23:14.314Z,99975.31
2024-02-17T01:23:46.260Z,99978.09
2024-02-17T01:24:18.311Z,99972.84
2024-02-17T01:24:50.353Z,99975.50
2024-02-17T01:25:23.643Z,99974.81
2024-02-17T01:25:56.706Z,99976.63
2024-02-17T01:26:29.784Z,99977.59
2024-02-17T01:27:01.789Z,99974.03
2024-02-17T01:27:33.857Z,99971.47
2024-02-17T01:28:06.694Z,99966.28
2024-02-17T01:28:38.680Z,99968.03
2024-02-17T01:29:11.100Z,99961.97
2024-02-17T01:29:43.646Z,99968.13
2024-02-17T01:30:15.629Z,99968.22
2024-02-17T01:30:47.685Z,99969.16
2024-02-17T01:31:19.641Z,99968.41
2024-02-17T01:31:52.907Z,99976.28
2024-02-17T01:32:24.875Z,99966.69
2024-02-17T01:32:56.924Z,99968.50
2024-02-17T01:33:28.975Z,99962.44
2024-02-17T01:34:00.942Z,99978.28
2024-02-17T01:34:32.845Z,99964.28
2024-02-17T01:35:05.093Z,99977.47
2024-02-17T01:35:37.050Z,99974.81
2024-02-17T01:36:18.597Z,99964.41
2024-02-17T01:36:51.575Z,99968.81
2024-02-17T01:37:23.588Z,99964.50
2024-02-17T01:37:55.556Z,99965.41
2024-02-17T01:38:27.565Z,99961.94
2024-02-17T01:38:59.549Z,99964.53
2024-02-17T01:39:31.495Z,99963.63
2024-02-17T01:40:03.525Z,99959.25
2024-02-17T01:41:10.450Z,99969.03
2024-02-17T01:41:42.363Z,99967.31
2024-02-17T01:42:14.303Z,99962.97
2024-02-17T01:42:46.345Z,99968.25
2024-02-17T01:43:18.321Z,99962.09
2024-02-17T01:43:50.188Z,99961.25
2024-02-17T01:44:22.115Z,99964.84
2024-02-17T01:44:54.088Z,99963.03
2024-02-17T01:45:26.552Z,99960.38
2024-02-17T01:45:58.638Z,99958.59
2024-02-17T01:46:30.950Z,99961.16
2024-02-17T01:47:03.716Z,99960.25
2024-02-17T01:47:35.886Z,99958.59
2024-02-17T01:48:08.621Z,99962.97
2024-02-17T01:48:42.394Z,99954.88
2024-02-17T01:49:16.112Z,99955.84
2024-02-17T01:49:48.747Z,99956.72
2024-02-17T01:50:21.504Z,99961.00
2024-02-17T01:50:53.553Z,99960.06
2024-02-17T01:51:27.111Z,99956.66
2024-02-17T01:52:01.697Z,99951.53
2024-02-17T01:52:36.227Z,99962.97
2024-02-17T01:53:09.985Z,99964.63
2024-02-17T01:53:43.740Z,99955.84
2024-02-17T01:54:17.628Z,99962.00
2024-02-17T01:54:49.973Z,99960.16
2024-02-17T01:55:23.364Z,99956.66
2024-02-17T01:55:55.473Z,99955.84
2024-02-17T01:56:27.950Z,99959.34
2024-02-17T01:57:01.755Z,99953.25
2024-02-17T01:57:34.650Z,99954.16
2024-02-17T01:58:06.696Z,99957.69
2024-02-17T01:58:38.963Z,99960.25
2024-02-17T01:59:11.104Z,99964.63
2024-02-17T01:59:44.546Z,99958.50
2024-02-17T02:00:17.836Z,99962.09
2024-02-17T02:00:50.708Z,99962.78
2024-02-17T02:01:22.770Z,99962.78
2024-02-17T02:01:56.522Z,99960.16
2024-02-17T02:02:29.109Z,99954.94
2024-02-17T02:03:02.052Z,99957.38
2024-02-17T02:03:34.373Z,99957.56
2024-02-17T02:04:06.602Z,99962.97
2024-02-17T02:04:38.697Z,99967.19
2024-02-17T02:05:11.273Z,99961.84
2024-02-17T02:05:44.160Z,99963.66
2024-02-17T02:06:21.648Z,99962.00
2024-02-17T02:06:53.749Z,99965.50
2024-02-17T02:07:25.767Z,99961.13
2024-02-17T02:07:57.847Z,99964.75
2024-02-17T02:08:55.230Z,99962.13
2024-02-17T02:09:28.072Z,99957.84
2024-02-17T02:10:00.179Z,99957.84
2024-02-17T02:10:32.178Z,99958.75
2024-02-17T02:11:05.271Z,99962.22
2024-02-17T02:11:39.860Z,99961.94
2024-02-17T02:12:11.816Z,99967.84
2024-02-17T02:12:43.936Z,99966.97
2024-02-17T02:13:16.097Z,99969.72
2024-02-17T02:13:48.419Z,99967.19
2024-02-17T02:14:21.235Z,99965.44
2024-02-17T02:15:12.195Z,99964.56
2024-02-17T02:15:53.008Z,99965.53
2024-02-17T02:16:26.720Z,99969.13
2024-02-17T02:16:58.998Z,99962.75
2024-02-17T02:17:31.040Z,99964.53
2024-02-17T02:18:03.181Z,99962.78
2024-02-17T02:18:35.314Z,99967.28
2024-02-17T02:19:08.188Z,99959.44
2024-02-17T02:19:40.243Z,99966.44
2024-02-17T02:20:13.201Z,99961.16
2024-02-17T02:20:45.702Z,99961.13
2024-02-17T02:21:17.897Z,99962.09
2024-02-17T02:21:49.915Z,99961.16
2024-02-17T02:22:21.889Z,99961.16
2024-02-17T02:22:53.855Z,99963.78
2024-02-17T02:23:25.903Z,99958.59
2024-02-17T02:23:57.885Z,99959.47
2024-02-17T02:24:30.767Z,99957.84
2024-02-17T02:25:07.173Z,99954.31
2024-02-17T02:25:43.803Z,99957.75
2024-02-17T02:26:15.899Z,99956.88
2024-02-17T02:26:47.826Z,99958.75
2024-02-17T02:27:19.785Z,99954.44
2024-02-17T02:27:53.242Z,99950.81
2024-02-17T02:28:25.952Z,99954.97
2024-02-17T02:29:01.220Z,99958.50
2024-02-17T02:29:33.369Z,99954.19
2024-02-17T02:30:06.011Z,99955.94
2024-02-17T02:30:38.209Z,99959.47
2024-02-17T02:31:10.247Z,99958.63
2024-02-17T02:31:42.184Z,99952.56
2024-02-17T02:32:14.191Z,99955.28
2024-02-17T02:32:46.271Z,99954.31
2024-02-17T02:33:18.433Z,99957.81
2024-02-17T02:33:55.319Z,99956.84
2024-02-17T02:34:27.409Z,99958.63
2024-02-17T02:35:00.563Z,99960.44
2024-02-17T02:35:32.680Z,99956.09
2024-02-17T02:36:04.716Z,99956.16
2024-02-17T02:36:36.692Z,99957.91
2024-02-17T02:37:08.759Z,99956.97
2024-02-17T02:37:40.710Z,99952.63
2024-02-17T02:38:12.770Z,99960.47
2024-02-17T02:38:46.186Z,99956.09
2024-02-17T02:39:18.066Z,99958.81
2024-02-17T02:39:50.132Z,99952.47
2024-02-17T02:40:22.016Z,99962.22
2024-02-17T02:41:03.797Z,99955.19
2024-02-17T02:41:35.676Z,99958.75
2024-02-17T02:42:07.694Z,99957.97
2024-02-17T02:42:40.958Z,99963.22
2024-02-17T02:43:12.956Z,99957.94
2024-02-17T02:43:45.807Z,99957.97
2024-02-17T02:44:17.977Z,99966.75
2024-02-17T02:44:49.871Z,99957.19
2024-02-17T02:45:22.125Z,99959.72
2024-02-17T02:45:54.300Z,99957.94
2024-02-17T02:46:26.270Z,99962.31
2024-02-17T02:46:58.183Z,99955.41
2024-02-17T02:47:30.147Z,99957.16
2024-02-17T02:48:02.160Z,99959.84
2024-02-17T02:48:34.349Z,99952.84
2024-02-17T02:49:06.377Z,99958.97
2024-02-17T02:49:38.409Z,99963.44
2024-02-17T02:50:12.268Z,99959.13
2024-02-17T02:50:44.541Z,99957.44
2024-02-17T02:51:18.280Z,99964.53
2024-02-17T02:51:50.247Z,99957.63
2024-02-17T02:52:22.214Z,99967.31
2024-02-17T02:52:54.343Z,99963.88
2024-02-17T02:53:26.653Z,99965.66
2024-02-17T02:53:58.585Z,99960.44
2024-02-17T02:54:30.762Z,99963.94
2024-02-17T02:55:02.731Z,99963.13
2024-02-17T02:55:34.708Z,99965.72
2024-02-17T02:56:06.880Z,99971.06
2024-02-17T02:56:38.780Z,99969.44
2024-02-17T02:57:10.680Z,99973.78
2024-02-17T02:57:42.700Z,99969.44
2024-02-17T02:58:14.676Z,99970.34
2024-02-17T02:58:46.604Z,99975.63
2024-02-17T02:59:18.513Z,99970.47
2024-02-17T02:59:51.718Z,99972.25
2024-02-17T03:00:23.854Z,99972.22
2024-02-17T03:00:55.930Z,99970.47
2024-02-17T03:01:27.926Z,99981.03
2024-02-17T03:01:59.849Z,99970.44
2024-02-17T03:02:31.766Z,99973.03
2024-02-17T03:03:04.063Z,99976.53
2024-02-17T03:03:36.204Z,99975.66
2024-02-17T03:04:08.233Z,99970.34
2024-02-17T03:04:40.449Z,99972.09
2024-02-17T03:05:12.485Z,99979.13
2024-02-17T03:05:44.490Z,99973.00
2024-02-17T03:06:16.666Z,99972.16
2024-02-17T03:06:48.771Z,99973.16
2024-02-17T03:07:20.937Z,99975.75
2024-02-17T03:07:52.951Z,99968.72
2024-02-17T03:08:24.868Z,99975.66
2024-02-17T03:09:12.739Z,99975.66
2024-02-17T03:09:45.040Z,99973.78
2024-02-17T03:10:17.309Z,99976.44
2024-02-17T03:10:49.303Z,99973.75
2024-02-17T03:11:21.746Z,99969.28
2024-02-17T03:11:53.795Z,99977.19
2024-02-17T03:12:25.738Z,99978.16
2024-02-17T03:12:58.050Z,99978.16
2024-02-17T03:13:29.982Z,99971.34
2024-02-17T03:14:02.117Z,99967.03
2024-02-17T03:14:35.126Z,99977.59
2024-02-17T03:15:07.681Z,99980.25
2024-02-17T03:15:39.705Z,99974.16
2024-02-17T03:16:11.930Z,99986.41
2024-02-17T03:16:44.008Z,99976.72
2024-02-17T03:17:17.846Z,99973.22
2024-02-17T03:17:53.378Z,99981.03
2024-02-17T03:18:25.381Z,99974.84
2024-02-17T03:18:57.523Z,99977.50
2024-02-17T03:19:30.582Z,99980.13
2024-02-17T03:20:04.812Z,99976.56
2024-02-17T03:20:36.856Z,99980.94
2024-02-17T03:21:08.769Z,99980.94
2024-02-17T03:21:41.958Z,99973.03
2024-02-17T03:22:13.963Z,99983.47
2024-02-17T03:22:46.639Z,99980.81
2024-02-17T03:23:18.513Z,99979.03
2024-02-17T03:23:50.411Z,99972.72
2024-02-17T03:24:22.355Z,99978.91
2024-02-17T03:24:54.575Z,99982.44
2024-02-17T03:25:26.512Z,99978.06
2024-02-17T03:25:58.434Z,99970.16
2024-02-17T03:26:30.536Z,99974.47
2024-02-17T03:27:02.504Z,99977.94
2024-02-17T03:27:35.997Z,99977.91
2024-02-17T03:28:08.224Z,99973.44
2024-02-17T03:28:40.230Z,99980.56
2024-02-17T03:29:12.100Z,99978.91
2024-02-17T03:29:44.078Z,99977.22
2024-02-17T03:30:16.155Z,99981.63
2024-02-17T03:30:48.198Z,99980.00
2024-02-17T03:31:20.151Z,99986.13
2024-02-17T03:31:52.388Z,99981.72
2024-02-17T03:32:25.253Z,99986.13
2024-02-17T03:32:57.416Z,99986.09
2024-02-17T03:33:30.200Z,99985.28
2024-02-17T03:34:06.842Z,99983.41
2024-02-17T03:34:40.916Z,99974.53
2024-02-17T03:35:13.082Z,99975.53
2024-02-17T03:35:44.970Z,99987.84
2024-02-17T03:36:16.932Z,99980.03
2024-02-17T03:36:49.046Z,99987.16
2024-02-17T03:37:22.711Z,99976.72
2024-02-17T03:37:54.782Z,99965.53
2024-02-17T03:38:26.717Z,99974.22
2024-02-17T03:38:58.678Z,99973.41
2024-02-17T03:39:30.740Z,99977.84
2024-02-17T03:40:04.086Z,99977.84
2024-02-17T03:40:43.618Z,99971.81
2024-02-17T03:41:16.668Z,99984.09
2024-02-17T03:41:48.675Z,99979.78
2024-02-17T03:42:20.758Z,99979.88
2024-02-17T03:42:52.847Z,99981.63
2024-02-17T03:43:24.987Z,99985.94
2024-02-17T03:43:56.843Z,99978.94
2024-02-17T03:44:28.781Z,99983.31
2024-02-17T03:45:00.752Z,99985.16
2024-02-17T03:45:32.862Z,99985.25
2024-02-17T03:46:04.793Z,99984.47
2024-02-17T03:46:36.778Z,99987.19
2024-02-17T03:47:09.499Z,99981.16
2024-02-17T03:47:41.504Z,99981.09
2024-02-17T03:48:13.497Z,99990.72
2024-02-17T03:48:45.697Z,99991.53
2024-02-17T03:49:21.770Z,99988.09
2024-02-17T03:49:53.938Z,99994.25
2024-02-17T03:50:25.880Z,99990.72
2024-02-17T03:50:57.799Z,99988.13
2024-02-17T03:51:29.779Z,99992.69
2024-02-17T03:52:01.998Z,99995.34
2024-02-17T03:52:34.483Z,99990.97
2024-02-17T03:53:06.422Z,99991.91
2024-02-17T03:53:38.595Z,99986.66
2024-02-17T03:54:10.560Z,99991.13
2024-02-17T03:54:43.662Z,99995.72
2024-02-17T03:55:15.737Z,99996.56
2024-02-17T03:55:47.837Z,99988.59
2024-02-17T03:56:19.856Z,99996.50
2024-02-17T03:56:51.805Z,99988.53
2024-02-17T03:57:24.886Z,99982.53
2024-02-17T03:57:56.818Z,100005.25
2024-02-17T03:58:28.910Z,99992.13
2024-02-17T03:59:00.815Z,100002.53
2024-02-17T03:59:33.074Z,100000.78
2024-02-17T04:00:08.153Z,99997.31
2024-02-17T04:00:40.269Z,99996.41
2024-02-17T04:01:12.419Z,99998.19
2024-02-17T04:01:44.484Z,100000.00
2024-02-17T04:02:16.491Z,99996.50
2024-02-17T04:02:48.467Z,99994.66
2024-02-17T04:03:20.544Z,99995.44
2024-02-17T04:03:52.505Z,100000.69
2024-02-17T04:04:24.578Z,99997.16
2024-02-17T04:04:56.595Z,100002.38
2024-02-17T04:05:28.822Z,100002.38
2024-02-17T04:06:01.015Z,100002.34
2024-02-17T04:06:34.161Z,99996.16
2024-02-17T04:07:06.265Z,99997.88
2024-02-17T04:07:40.214Z,100003.06
2024-02-17T04:08:12.398Z,99996.91
2024-02-17T04:08:46.509Z,99994.25
2024-02-17T04:09:37.521Z,100003.00
2024-02-17T04:10:10.433Z,99996.88
2024-02-17T04:10:43.339Z,100001.28
2024-02-17T04:11:15.560Z,99998.59
2024-02-17T04:11:47.573Z,100003.75
2024-02-17T04:12:19.490Z,100004.69
2024-02-17T04:12:51.543Z,100003.78
2024-02-17T04:13:23.652Z,100003.72
2024-02-17T04:13:58.576Z,100007.22
2024-02-17T04:14:30.521Z,100002.81
2024-02-17T04:15:02.417Z,100005.38
2024-02-17T04:15:34.979Z,99998.34
2024-02-17T04:16:07.147Z,100005.38
2024-02-17T04:16:39.171Z,100000.13
2024-02-17T04:17:11.109Z,100008.00
2024-02-17T04:17:43.074Z,100008.91
2024-02-17T04:18:15.127Z,100008.97
2024-02-17T04:18:47.722Z,100005.56
2024-02-17T04:19:20.546Z,100008.22
2024-02-17T04:19:52.715Z,100010.75
2024-02-17T04:20:24.843Z,100008.97
2024-02-17T04:20:56.850Z,100007.25
2024-02-17T04:21:29.164Z,100010.75
2024-02-17T04:22:01.093Z,100016.00
2024-02-17T04:22:33.021Z,100011.66
2024-02-17T04:23:09.207Z,100014.34
2024-02-17T04:23:41.236Z,100016.97
2024-02-17T04:24:13.195Z,100020.50
2024-02-17T04:24:46.380Z,100017.97
2024-02-17T04:25:18.515Z,100018.94
2024-02-17T04:25:50.391Z,100017.28
2024-02-17T04:26:22.433Z,100017.44
2024-02-17T04:26:54.394Z,100021.00
2024-02-17T04:27:26.330Z,100021.00
2024-02-17T04:27:58.765Z,100015.81
2024-02-17T04:28:31.195Z,100017.66
2024-02-17T04:29:03.123Z,100018.56
2024-02-17T04:29:35.280Z,100015.91
2024-02-17T04:30:07.999Z,100014.19
2024-02-17T04:30:40.078Z,100015.16
2024-02-17T04:31:12.128Z,100021.41
2024-02-17T04:31:44.401Z,100022.47
2024-02-17T04:32:16.305Z,100022.53
2024-02-17T04:32:48.306Z,100021.59
2024-02-17T04:33:20.492Z,100017.97
2024-02-17T04:33:52.725Z,100009.16
2024-02-17T04:34:24.865Z,100017.91
2024-02-17T04:34:57.009Z,100016.13
2024-02-17T04:35:29.152Z,100014.44
2024-02-17T04:36:01.174Z,100014.44
2024-02-17T04:36:33.164Z,100016.31
2024-02-17T04:37:05.374Z,100014.56
2024-02-17T04:37:37.374Z,100017.31
2024-02-17T04:38:09.278Z,100017.31
2024-02-17T04:38:41.949Z,100015.59
2024-02-17T04:39:14.879Z,100020.88
2024-02-17T04:39:46.905Z,100020.88
2024-02-17T04:40:19.060Z,100021.72
2024-02-17T04:40:51.156Z,100020.81
2024-02-17T04:41:23.056Z,100016.50
2024-02-17T04:41:56.112Z,100023.44
2024-02-17T04:42:28.196Z,100026.91
2024-02-17T04:43:00.162Z,100022.53
2024-02-17T04:43:32.210Z,100026.94
2024-02-17T04:44:04.922Z,100021.66
2024-02-17T04:44:37.035Z,100020.81
2024-02-17T04:45:10.841Z,100031.31
2024-02-17T04:45:42.801Z,100026.91
2024-02-17T04:46:15.172Z,100021.59
2024-02-17T04:46:47.084Z,100023.34
2024-02-17T04:47:19.042Z,100026.00
2024-02-17T04:47:51.056Z,100023.34
2024-02-17T04:48:23.063Z,100023.34
2024-02-17T04:48:55.137Z,100021.59
2024-02-17T04:49:27.156Z,100021.59
2024-02-17T04:49:59.183Z,100021.50
2024-02-17T04:50:31.146Z,100025.00
2024-02-17T04:51:03.149Z,100024.19
2024-02-17T04:51:36.322Z,100029.41
2024-02-17T04:52:08.385Z,100025.88
2024-02-17T04:52:40.320Z,100020.53
2024-02-17T04:53:12.286Z,100024.91
2024-02-17T04:53:44.231Z,100022.19
2024-02-17T04:54:16.181Z,100021.31
2024-02-17T04:54:48.157Z,100027.38
2024-02-17T04:55:20.070Z,100022.97
2024-02-17T04:55:52.152Z,100015.16
2024-02-17T04:56:24.215Z,100018.63
2024-02-17T04:56:56.112Z,100025.66
2024-02-17T04:57:28.042Z,100022.16
2024-02-17T04:58:00.179Z,100026.56
2024-02-17T04:58:32.118Z,100022.94
2024-02-17T04:59:04.378Z,100020.31
2024-02-17T04:59:36.274Z,100020.31
2024-02-17T05:00:10.129Z,100022.88
2024-02-17T05:00:42.247Z,100021.09
2024-02-17T05:01:14.472Z,100025.47
2024-02-17T05:01:47.226Z,100028.97
2024-02-17T05:02:19.177Z,100024.53
2024-02-17T05:02:51.085Z,100027.97
2024-02-17T05:03:23.399Z,100024.44
2024-02-17T05:03:55.508Z,100027.06
2024-02-17T05:04:27.628Z,100022.69
2024-02-17T05:04:59.725Z,100021.13
2024-02-17T05:05:31.731Z,100025.31
2024-02-17T05:06:04.423Z,100026.09
2024-02-17T05:06:36.381Z,100019.94
2024-02-17T05:07:08.867Z,100024.22
2024-02-17T05:07:40.830Z,100024.16
2024-02-17T05:08:38.265Z,100025.09
2024-02-17T05:09:11.321Z,100025.88
2024-02-17T05:09:43.355Z,100023.19
2024-02-17T05:10:15.430Z,100024.94
2024-02-17T05:10:47.327Z,100023.19
2024-02-17T05:11:19.224Z,100026.75
2024-02-17T05:11:51.173Z,100028.50
2024-02-17T05:12:23.257Z,100023.38
2024-02-17T05:12:55.298Z,100030.50
2024-02-17T05:13:27.444Z,100030.59
2024-02-17T05:13:59.477Z,100030.66
2024-02-17T05:14:31.498Z,100031.47
2024-02-17T05:15:04.555Z,100024.53
2024-02-17T05:15:36.760Z,100032.50
2024-02-17T05:16:08.937Z,100037.78
2024-02-17T05:16:40.846Z,100036.91
2024-02-17T05:17:13.353Z,100029.13
2024-02-17T05:17:45.730Z,100030.94
2024-02-17T05:18:17.810Z,100037.09
2024-02-17T05:18:50.010Z,100037.13
2024-02-17T05:19:22.279Z,100034.56
2024-02-17T05:19:54.319Z,100036.28
2024-02-17T05:20:27.382Z,100036.22
2024-02-17T05:20:59.300Z,100034.44
2024-02-17T05:21:31.236Z,100040.56
2024-02-17T05:22:03.149Z,100037.09
2024-02-17T05:22:35.106Z,100040.72
2024-02-17T05:23:07.717Z,100031.06
2024-02-17T05:23:40.537Z,100044.13
2024-02-17T05:24:12.669Z,100037.09
2024-02-17T05:24:47.473Z,100034.47
2024-02-17T05:25:22.574Z,100034.44
2024-02-17T05:25:56.143Z,100041.41
2024-02-17T05:26:37.849Z,100040.56
2024-02-17T05:27:09.921Z,100043.13
2024-02-17T05:27:42.124Z,100041.41
2024-02-17T05:28:15.807Z,100035.22
2024-02-17T05:28:47.688Z,100047.53
2024-02-17T05:29:19.747Z,100048.31
2024-02-17T05:29:51.713Z,100042.16
2024-02-17T05:30:23.604Z,100044.78
2024-02-17T05:30:56.300Z,100052.69
2024-02-17T05:31:28.994Z,100048.28
2024-02-17T05:32:04.126Z,100051.78
2024-02-17T05:32:36.073Z,100050.06
2024-02-17T05:33:08.945Z,100043.00
2024-02-17T05:33:41.242Z,100048.25
2024-02-17T05:34:13.456Z,100045.69
2024-02-17T05:34:45.581Z,100052.75
2024-02-17T05:35:17.814Z,100051.84
2024-02-17T05:35:50.922Z,100053.53
2024-02-17T05:36:55.586Z,100048.25
2024-02-17T05:37:27.604Z,100050.88
2024-02-17T05:38:27.351Z,100055.34
2024-02-17T05:38:59.305Z,100051.91
2024-02-17T05:39:32.906Z,100052.75
2024-02-17T05:40:08.378Z,100043.94
2024-02-17T05:40:40.428Z,100044.81
2024-02-17T05:41:12.352Z,100043.94
2024-02-17T05:41:44.557Z,100051.78
2024-02-17T05:42:16.640Z,100050.84
2024-02-17T05:42:48.675Z,100044.75
2024-02-17T05:43:20.690Z,100048.31
2024-02-17T05:43:54.086Z,100045.53
2024-02-17T05:44:26.428Z,100044.63
2024-02-17T05:44:58.470Z,100049.78
2024-02-17T05:45:30.813Z,100053.16
2024-02-17T05:46:02.880Z,100047.88
2024-02-17T05:46:34.803Z,100053.13
2024-02-17T05:47:06.785Z,100048.75
2024-02-17T05:47:38.758Z,100052.22
2024-02-17T05:48:11.327Z,100056.53
2024-02-17T05:48:46.463Z,100052.97
2024-02-17T05:49:21.352Z,100054.63
2024-02-17T05:49:53.422Z,100057.16
2024-02-17T05:50:25.833Z,100058.00
2024-02-17T05:50:57.718Z,100053.63
2024-02-17T05:51:29.838Z,100057.13
2024-02-17T05:52:01.747Z,100050.97
2024-02-17T05:52:34.282Z,100066.69
2024-02-17T05:53:06.395Z,100056.06
2024-02-17T05:53:38.452Z,100054.38
2024-02-17T05:54:10.389Z,100069.25
2024-02-17T05:54:42.386Z,100065.72
2024-02-17T05:55:14.296Z,100062.25
2024-02-17T05:55:46.355Z,100066.59
2024-02-17T05:56:18.357Z,100064.88
2024-02-17T05:56:50.674Z,100064.88
2024-02-17T05:57:22.612Z,100059.59
2024-02-17T05:57:55.216Z,100067.50
2024-02-17T05:58:27.170Z,100072.72
2024-02-17T05:58:59.123Z,100075.28
2024-02-17T05:59:32.038Z,100073.50
2024-02-17T06:00:05.370Z,100075.19
2024-02-17T06:00:37.436Z,100071.78
2024-02-17T06:01:09.789Z,100071.03
2024-02-17T06:01:42.596Z,100071.94
2024-02-17T06:02:14.587Z,100074.44
2024-02-17T06:02:46.563Z,100069.22
2024-02-17T06:03:19.083Z,100075.28
2024-02-17T06:03:51.714Z,100077.84
2024-02-17T06:04:23.862Z,100075.16
2024-02-17T06:04:56.682Z,100083.03
2024-02-17T06:05:30.303Z,100082.13
2024-02-17T06:06:02.255Z,100079.56
2024-02-17T06:06:34.926Z,100084.69
2024-02-17T06:07:07.016Z,100081.06
2024-02-17T06:07:39.128Z,100079.38
2024-02-17T06:08:11.387Z,100080.97
2024-02-17T06:08:52.329Z,100079.06
2024-02-17T06:09:42.684Z,100085.03
2024-02-17T06:10:14.931Z,100076.91
2024-02-17T06:10:46.934Z,100086.47
2024-02-17T06:11:19.011Z,100075.94
2024-02-17T06:11:51.128Z,100075.66
2024-02-17T06:12:23.026Z,100076.69
2024-02-17T06:12:55.084Z,100079.13
2024-02-17T06:13:27.047Z,100081.75
2024-02-17T06:13:59.015Z,100075.59
2024-02-17T06:14:30.963Z,100078.13
2024-02-17T06:15:03.017Z,100082.44
2024-02-17T06:15:35.909Z,100079.81
2024-02-17T06:16:08.273Z,100083.28
2024-02-17T06:16:40.331Z,100077.81
2024-02-17T06:17:14.294Z,100083.91
2024-02-17T06:17:47.990Z,100089.25
2024-02-17T06:18:58.356Z,100088.34
2024-02-17T06:19:49.173Z,100082.72
2024-02-17T06:20:39.675Z,100084.47
2024-02-17T06:21:12.374Z,100089.75
2024-02-17T06:21:44.696Z,100082.69
2024-02-17T06:22:16.659Z,100082.69
2024-02-17T06:22:48.542Z,100093.22
2024-02-17T06:23:20.486Z,100079.22